sensor_id;sensor_type;location;lat;lon;timestamp;pressure;altitude;pressure_sealevel;temperature;humidity
28004;BME280;15330;51.234;6.754;2023-05-14T00:02:18;101302.50;;;15.85;96.41
28004;BME280;15330;51.234;6.754;2023-05-14T00:04:43;101304.88;;;15.80;96.84
28004;BME280;15330;51.234;6.754;2023-05-14T00:07:09;101296.97;;;15.78;96.86
28004;BME280;15330;51.234;6.754;2023-05-14T00:09:34;101307.69;;;15.72;97.96
28004;BME280;15330;51.234;6.754;2023-05-14T00:12:00;101297.38;;;15.75;97.49
28004;BME280;15330;51.234;6.754;2023-05-14T00:14:25;101300.78;;;15.69;98.31
28004;BME280;15330;51.234;6.754;2023-05-14T00:16:51;101306.31;;;15.53;98.79
28004;BME280;15330;51.234;6.754;2023-05-14T00:19:16;101309.53;;;15.57;99.45
28004;BME280;15330;51.234;6.754;2023-05-14T00:21:41;101303.09;;;15.58;98.66
28004;BME280;15330;51.234;6.754;2023-05-14T00:24:07;101304.16;;;15.57;99.08
28004;BME280;15330;51.234;6.754;2023-05-14T00:26:32;101295.16;;;15.41;98.88
28004;BME280;15330;51.234;6.754;2023-05-14T00:28:58;101301.13;;;15.52;99.80
28004;BME280;15330;51.234;6.754;2023-05-14T00:31:23;101293.94;;;15.44;99.30
28004;BME280;15330;51.234;6.754;2023-05-14T00:33:49;101298.09;;;15.32;99.74
28004;BME280;15330;51.234;6.754;2023-05-14T00:36:14;101295.69;;;15.37;99.70
28004;BME280;15330;51.234;6.754;2023-05-14T00:38:39;101293.47;;;15.40;99.55
28004;BME280;15330;51.234;6.754;2023-05-14T00:41:05;101288.56;;;15.44;99.10
28004;BME280;15330;51.234;6.754;2023-05-14T00:43:30;101293.47;;;15.40;100.00
28004;BME280;15330;51.234;6.754;2023-05-14T00:45:57;101294.03;;;15.36;100.00
28004;BME280;15330;51.234;6.754;2023-05-14T00:48:23;101281.75;;;15.33;100.00
28004;BME280;15330;51.234;6.754;2023-05-14T00:50:49;101282.94;;;15.31;99.84
28004;BME280;15330;51.234;6.754;2023-05-14T00:53:16;101266.69;;;15.24;100.00
28004;BME280;15330;51.234;6.754;2023-05-14T00:55:42;101275.47;;;15.18;100.00
28004;BME280;15330;51.234;6.754;2023-05-14T00:58:12;101269.38;;;15.24;99.81
28004;BME280;15330;51.234;6.754;2023-05-14T01:00:39;101264.69;;;15.18;100.00
28004;BME280;15330;51.234;6.754;2023-05-14T01:03:05;101266.94;;;15.15;100.00
28004;BME280;15330;51.234;6.754;2023-05-14T01:09:12;101256.88;;;15.09;100.00
28004;BME280;15330;51.234;6.754;2023-05-14T01:17:04;101245.94;;;14.87;100.00
28004;BME280;15330;51.234;6.754;2023-05-14T01:19:38;101245.13;;;14.25;100.00
28004;BME280;15330;51.234;6.754;2023-05-14T01:22:04;101248.94;;;14.69;100.00
28004;BME280;15330;51.234;6.754;2023-05-14T01:24:30;101246.50;;;14.83;100.00
28004;BME280;15330;51.234;6.754;2023-05-14T01:27:02;101242.66;;;14.77;100.00
28004;BME280;15330;51.234;6.754;2023-05-14T01:29:32;101237.06;;;14.79;100.00
28004;BME280;15330;51.234;6.754;2023-05-14T01:32:04;101240.97;;;14.76;100.00
28004;BME280;15330;51.234;6.754;2023-05-14T01:34:30;101244.38;;;14.70;100.00
28004;BME280;15330;51.234;6.754;2023-05-14T01:36:57;101231.94;;;14.69;100.00
28004;BME280;15330;51.234;6.754;2023-05-14T01:39:25;101242.03;;;14.67;100.00
28004;BME280;15330;51.234;6.754;2023-05-14T01:41:52;101245.03;;;14.49;100.00
28004;BME280;15330;51.234;6.754;2023-05-14T01:44:18;101244.44;;;14.62;100.00
28004;BME280;15330;51.234;6.754;2023-05-14T01:46:44;101241.88;;;14.68;100.00
28004;BME280;15330;51.234;6.754;2023-05-14T01:49:09;101243.28;;;14.56;100.00
28004;BME280;15330;51.234;6.754;2023-05-14T01:51:34;101247.97;;;14.62;100.00
28004;BME280;15330;51.234;6.754;2023-05-14T01:54:00;101241.69;;;14.47;100.00
28004;BME280;15330;51.234;6.754;2023-05-14T01:56:25;101239.75;;;14.56;100.00
28004;BME280;15330;51.234;6.754;2023-05-14T01:58:51;101245.03;;;14.49;100.00
28004;BME280;15330;51.234;6.754;2023-05-14T02:01:16;101245.69;;;14.51;100.00
28004;BME280;15330;51.234;6.754;2023-05-14T02:03:42;101250.41;;;14.49;100.00
28004;BME280;15330;51.234;6.754;2023-05-14T02:06:07;101240.31;;;14.51;100.00
28004;BME280;15330;51.234;6.754;2023-05-14T02:08:33;101238.53;;;14.36;100.00
28004;BME280;15330;51.234;6.754;2023-05-14T02:10:58;101238.88;;;14.41;100.00
28004;BME280;15330;51.234;6.754;2023-05-14T02:13:24;101243.25;;;14.42;100.00
28004;BME280;15330;51.234;6.754;2023-05-14T02:15:50;101237.84;;;14.42;100.00
28004;BME280;15330;51.234;6.754;2023-05-14T02:18:15;101230.38;;;14.21;100.00
28004;BME280;15330;51.234;6.754;2023-05-14T02:20:40;101236.78;;;14.20;100.00
28004;BME280;15330;51.234;6.754;2023-05-14T02:23:06;101234.41;;;14.17;100.00
28004;BME280;15330;51.234;6.754;2023-05-14T02:25:31;101232.13;;;14.06;100.00
28004;BME280;15330;51.234;6.754;2023-05-14T02:27:57;101220.34;;;14.07;100.00
28004;BME280;15330;51.234;6.754;2023-05-14T02:30:22;101231.25;;;14.13;100.00
28004;BME280;15330;51.234;6.754;2023-05-14T02:32:47;101230.72;;;14.18;100.00
28004;BME280;15330;51.234;6.754;2023-05-14T02:35:13;101219.47;;;14.14;100.00
28004;BME280;15330;51.234;6.754;2023-05-14T02:37:38;101220.88;;;14.02;100.00
28004;BME280;15330;51.234;6.754;2023-05-14T02:40:04;101224.22;;;14.04;100.00
28004;BME280;15330;51.234;6.754;2023-05-14T02:42:29;101221.84;;;14.09;100.00
28004;BME280;15330;51.234;6.754;2023-05-14T02:44:55;101224.78;;;14.00;100.00
28004;BME280;15330;51.234;6.754;2023-05-14T02:47:20;101217.66;;;14.07;100.00
28004;BME280;15330;51.234;6.754;2023-05-14T02:49:45;101222.38;;;13.66;100.00
28004;BME280;15330;51.234;6.754;2023-05-14T02:52:11;101225.53;;;13.77;100.00
28004;BME280;15330;51.234;6.754;2023-05-14T02:54:36;101217.75;;;13.82;100.00
28004;BME280;15330;51.234;6.754;2023-05-14T02:57:02;101224.56;;;13.70;100.00
28004;BME280;15330;51.234;6.754;2023-05-14T02:59:28;101226.00;;;13.81;100.00
28004;BME280;15330;51.234;6.754;2023-05-14T03:01:55;101231.38;;;13.89;100.00
28004;BME280;15330;51.234;6.754;2023-05-14T03:04:20;101225.84;;;13.82;100.00
28004;BME280;15330;51.234;6.754;2023-05-14T03:06:46;101216.06;;;13.89;100.00
28004;BME280;15330;51.234;6.754;2023-05-14T03:09:11;101224.66;;;13.85;100.00
28004;BME280;15330;51.234;6.754;2023-05-14T03:11:37;101217.44;;;13.85;100.00
28004;BME280;15330;51.234;6.754;2023-05-14T03:14:02;101225.50;;;13.85;100.00
28004;BME280;15330;51.234;6.754;2023-05-14T03:16:27;101221.47;;;13.81;100.00
28004;BME280;15330;51.234;6.754;2023-05-14T03:18:53;101228.06;;;13.79;100.00
28004;BME280;15330;51.234;6.754;2023-05-14T03:21:18;101227.56;;;13.75;100.00
28004;BME280;15330;51.234;6.754;2023-05-14T03:23:43;101228.38;;;13.76;100.00
28004;BME280;15330;51.234;6.754;2023-05-14T03:26:09;101234.47;;;13.70;100.00
28004;BME280;15330;51.234;6.754;2023-05-14T03:28:34;101226.28;;;13.55;100.00
28004;BME280;15330;51.234;6.754;2023-05-14T03:30:59;101225.75;;;13.51;100.00
28004;BME280;15330;51.234;6.754;2023-05-14T03:33:25;101225.44;;;13.54;100.00
28004;BME280;15330;51.234;6.754;2023-05-14T03:35:50;101230.00;;;13.46;100.00
28004;BME280;15330;51.234;6.754;2023-05-14T03:38:16;101228.66;;;13.42;100.00
28004;BME280;15330;51.234;6.754;2023-05-14T03:40:43;101228.34;;;13.37;100.00
28004;BME280;15330;51.234;6.754;2023-05-14T03:43:09;101227.13;;;13.47;100.00
28004;BME280;15330;51.234;6.754;2023-05-14T03:45:35;101227.97;;;13.48;100.00
28004;BME280;15330;51.234;6.754;2023-05-14T03:48:00;101219.28;;;13.38;100.00
28004;BME280;15330;51.234;6.754;2023-05-14T03:50:26;101224.09;;;13.50;100.00
28004;BME280;15330;51.234;6.754;2023-05-14T03:52:51;101222.78;;;13.46;100.00
28004;BME280;15330;51.234;6.754;2023-05-14T03:55:18;101219.91;;;13.48;100.00
28004;BME280;15330;51.234;6.754;2023-05-14T03:57:44;101213.88;;;13.46;100.00
28004;BME280;15330;51.234;6.754;2023-05-14T04:00:10;101219.38;;;13.52;100.00
28004;BME280;15330;51.234;6.754;2023-05-14T04:02:35;101228.28;;;13.53;100.00
28004;BME280;15330;51.234;6.754;2023-05-14T04:05:01;101215.56;;;13.39;100.00
28004;BME280;15330;51.234;6.754;2023-05-14T04:07:26;101227.97;;;13.48;100.00
28004;BME280;15330;51.234;6.754;2023-05-14T04:09:51;101218.53;;;13.52;100.00
28004;BME280;15330;51.234;6.754;2023-05-14T04:12:17;101219.88;;;13.56;100.00
28004;BME280;15330;51.234;6.754;2023-05-14T04:14:42;101226.06;;;13.65;100.00
28004;BME280;15330;51.234;6.754;2023-05-14T04:17:07;101214.19;;;13.51;100.00
28004;BME280;15330;51.234;6.754;2023-05-14T04:19:33;101213.75;;;13.78;100.00
28004;BME280;15330;51.234;6.754;2023-05-14T04:21:58;101215.03;;;13.99;100.00
28004;BME280;15330;51.234;6.754;2023-05-14T04:24:23;101207.63;;;14.01;100.00
28004;BME280;15330;51.234;6.754;2023-05-14T04:26:49;101209.25;;;14.10;100.00
28004;BME280;15330;51.234;6.754;2023-05-14T04:29:14;101208.75;;;14.06;100.00
28004;BME280;15330;51.234;6.754;2023-05-14T04:31:40;101211.63;;;14.05;100.00
28004;BME280;15330;51.234;6.754;2023-05-14T04:34:06;101213.00;;;13.53;100.00
28004;BME280;15330;51.234;6.754;2023-05-14T04:36:31;101213.84;;;13.54;100.00
28004;BME280;15330;51.234;6.754;2023-05-14T04:38:56;101208.06;;;13.73;100.00
28004;BME280;15330;51.234;6.754;2023-05-14T04:41:22;101214.78;;;13.77;100.00
28004;BME280;15330;51.234;6.754;2023-05-14T04:43:48;101206.16;;;13.90;100.00
28004;BME280;15330;51.234;6.754;2023-05-14T04:46:14;101211.22;;;14.16;100.00
28004;BME280;15330;51.234;6.754;2023-05-14T04:48:39;101213.84;;;14.24;100.00
28004;BME280;15330;51.234;6.754;2023-05-14T04:51:05;101207.97;;;14.28;100.00
28004;BME280;15330;51.234;6.754;2023-05-14T04:53:30;101204.78;;;14.25;100.00
28004;BME280;15330;51.234;6.754;2023-05-14T04:55:55;101206.16;;;14.21;100.00
28004;BME280;15330;51.234;6.754;2023-05-14T04:58:21;101202.75;;;13.96;100.00
28004;BME280;15330;51.234;6.754;2023-05-14T05:00:48;101200.91;;;13.96;100.00
28004;BME280;15330;51.234;6.754;2023-05-14T05:03:13;101203.25;;;14.22;100.00
28004;BME280;15330;51.234;6.754;2023-05-14T05:05:39;101201.63;;;14.13;100.00
28004;BME280;15330;51.234;6.754;2023-05-14T05:08:04;101205.84;;;14.16;100.00
28004;BME280;15330;51.234;6.754;2023-05-14T05:10:30;101201.53;;;14.07;100.00
28004;BME280;15330;51.234;6.754;2023-05-14T05:12:55;101205.66;;;14.17;100.00
28004;BME280;15330;51.234;6.754;2023-05-14T05:15:20;101206.78;;;14.00;100.00
28004;BME280;15330;51.234;6.754;2023-05-14T05:17:47;101200.06;;;13.96;100.00
28004;BME280;15330;51.234;6.754;2023-05-14T05:20:12;101193.97;;;14.02;100.00
28004;BME280;15330;51.234;6.754;2023-05-14T05:22:38;101198.94;;;14.21;100.00
28004;BME280;15330;51.234;6.754;2023-05-14T05:25:03;101206.28;;;13.96;100.00
28004;BME280;15330;51.234;6.754;2023-05-14T05:27:30;101206.84;;;14.15;100.00
28004;BME280;15330;51.234;6.754;2023-05-14T05:29:56;101202.69;;;14.04;100.00
28004;BME280;15330;51.234;6.754;2023-05-14T05:32:21;101206.72;;;14.08;100.00
28004;BME280;15330;51.234;6.754;2023-05-14T05:34:47;101208.25;;;14.03;100.00
28004;BME280;15330;51.234;6.754;2023-05-14T05:37:12;101208.41;;;14.09;100.00
28004;BME280;15330;51.234;6.754;2023-05-14T05:39:39;101217.75;;;13.82;100.00
28004;BME280;15330;51.234;6.754;2023-05-14T05:42:04;101210.94;;;14.03;100.00
28004;BME280;15330;51.234;6.754;2023-05-14T05:44:30;101215.25;;;14.51;100.00
28004;BME280;15330;51.234;6.754;2023-05-14T05:46:55;101221.66;;;14.50;100.00
28004;BME280;15330;51.234;6.754;2023-05-14T05:49:21;101225.25;;;14.42;100.00
28004;BME280;15330;51.234;6.754;2023-05-14T05:51:47;101217.63;;;14.91;100.00
28004;BME280;15330;51.234;6.754;2023-05-14T05:54:12;101224.38;;;14.87;100.00
28004;BME280;15330;51.234;6.754;2023-05-14T05:56:37;101218.72;;;14.82;100.00
28004;BME280;15330;51.234;6.754;2023-05-14T05:59:03;101217.84;;;15.04;100.00
28004;BME280;15330;51.234;6.754;2023-05-14T06:01:28;101226.88;;;15.12;100.00
28004;BME280;15330;51.234;6.754;2023-05-14T06:03:54;101224.06;;;15.05;100.00
28004;BME280;15330;51.234;6.754;2023-05-14T06:06:19;101223.59;;;15.16;100.00
28004;BME280;15330;51.234;6.754;2023-05-14T06:08:46;101210.00;;;15.32;100.00
28004;BME280;15330;51.234;6.754;2023-05-14T06:11:11;101223.00;;;16.02;100.00
28004;BME280;15330;51.234;6.754;2023-05-14T06:13:36;101231.63;;;15.24;100.00
28004;BME280;15330;51.234;6.754;2023-05-14T06:16:02;101224.63;;;14.55;100.00
28004;BME280;15330;51.234;6.754;2023-05-14T06:18:27;101235.44;;;15.15;100.00
28004;BME280;15330;51.234;6.754;2023-05-14T06:20:53;101232.97;;;15.58;100.00
28004;BME280;15330;51.234;6.754;2023-05-14T06:23:21;101222.09;;;15.51;100.00
28004;BME280;15330;51.234;6.754;2023-05-14T06:25:48;101224.34;;;15.62;100.00
28004;BME280;15330;51.234;6.754;2023-05-14T06:28:14;101226.66;;;15.95;100.00
28004;BME280;15330;51.234;6.754;2023-05-14T06:30:39;101226.56;;;16.03;99.81
28004;BME280;15330;51.234;6.754;2023-05-14T06:33:04;101232.56;;;16.20;99.99
28004;BME280;15330;51.234;6.754;2023-05-14T06:35:30;101227.75;;;16.72;100.00
28004;BME280;15330;51.234;6.754;2023-05-14T06:37:56;101230.28;;;16.74;98.87
28004;BME280;15330;51.234;6.754;2023-05-14T06:40:21;101228.69;;;17.35;96.67
28004;BME280;15330;51.234;6.754;2023-05-14T06:42:47;101234.88;;;17.22;96.77
28004;BME280;15330;51.234;6.754;2023-05-14T06:45:12;101230.28;;;16.74;98.15
28004;BME280;15330;51.234;6.754;2023-05-14T06:47:37;101225.03;;;16.15;99.89
28004;BME280;15330;51.234;6.754;2023-05-14T06:50:03;101223.66;;;16.76;98.39
28004;BME280;15330;51.234;6.754;2023-05-14T06:52:28;101221.97;;;16.75;97.58
28004;BME280;15330;51.234;6.754;2023-05-14T06:54:54;101226.75;;;15.72;100.00
28004;BME280;15330;51.234;6.754;2023-05-14T06:57:19;101220.13;;;16.04;100.00
28004;BME280;15330;51.234;6.754;2023-05-14T06:59:45;101221.72;;;16.70;98.29
28004;BME280;15330;51.234;6.754;2023-05-14T07:02:11;101228.00;;;16.99;96.74
28004;BME280;15330;51.234;6.754;2023-05-14T07:04:36;101215.31;;;17.55;93.80
28004;BME280;15330;51.234;6.754;2023-05-14T07:07:02;101220.63;;;17.70;94.79
28004;BME280;15330;51.234;6.754;2023-05-14T07:09:27;101212.63;;;17.89;92.40
28004;BME280;15330;51.234;6.754;2023-05-14T07:11:52;101213.59;;;18.23;93.40
28004;BME280;15330;51.234;6.754;2023-05-14T07:14:18;101202.88;;;18.02;90.57
28004;BME280;15330;51.234;6.754;2023-05-14T07:16:43;101212.88;;;18.08;91.11
28004;BME280;15330;51.234;6.754;2023-05-14T07:19:09;101208.25;;;18.56;87.94
28004;BME280;15330;51.234;6.754;2023-05-14T07:21:35;101217.50;;;19.08;88.16
28004;BME280;15330;51.234;6.754;2023-05-14T07:24:00;101214.28;;;18.51;86.80
28004;BME280;15330;51.234;6.754;2023-05-14T07:26:26;101206.63;;;18.61;85.62
28004;BME280;15330;51.234;6.754;2023-05-14T07:28:51;101225.06;;;20.03;87.18
28004;BME280;15330;51.234;6.754;2023-05-14T07:31:16;101218.72;;;19.12;86.70
28004;BME280;15330;51.234;6.754;2023-05-14T07:33:42;101222.19;;;18.46;87.93
28004;BME280;15330;51.234;6.754;2023-05-14T07:36:07;101220.81;;;19.49;83.95
28004;BME280;15330;51.234;6.754;2023-05-14T07:38:33;101211.09;;;20.37;83.92
28004;BME280;15330;51.234;6.754;2023-05-14T07:40:58;101221.34;;;19.91;81.67
28004;BME280;15330;51.234;6.754;2023-05-14T07:43:24;101228.22;;;19.87;83.71
28004;BME280;15330;51.234;6.754;2023-05-14T07:45:49;101216.66;;;20.56;79.42
28004;BME280;15330;51.234;6.754;2023-05-14T07:48:15;101230.16;;;19.66;83.46
28004;BME280;15330;51.234;6.754;2023-05-14T07:50:40;101223.56;;;20.13;83.26
28004;BME280;15330;51.234;6.754;2023-05-14T07:53:06;101221.56;;;20.72;80.43
28004;BME280;15330;51.234;6.754;2023-05-14T07:55:32;101226.66;;;21.18;79.38
28004;BME280;15330;51.234;6.754;2023-05-14T07:57:57;101210.91;;;20.32;79.41
28004;BME280;15330;51.234;6.754;2023-05-14T08:00:22;101216.75;;;19.91;78.40
28004;BME280;15330;51.234;6.754;2023-05-14T08:02:48;101215.31;;;20.27;79.64
28004;BME280;15330;51.234;6.754;2023-05-14T08:05:14;101222.13;;;20.49;78.16
28004;BME280;15330;51.234;6.754;2023-05-14T08:07:40;101219.28;;;20.31;78.89
28004;BME280;15330;51.234;6.754;2023-05-14T08:10:06;101224.91;;;20.36;79.73
28004;BME280;15330;51.234;6.754;2023-05-14T08:12:32;101216.03;;;21.10;80.88
28004;BME280;15330;51.234;6.754;2023-05-14T08:14:57;101214.09;;;21.60;74.99
28004;BME280;15330;51.234;6.754;2023-05-14T08:17:22;101215.50;;;22.36;77.42
28004;BME280;15330;51.234;6.754;2023-05-14T08:19:48;101224.88;;;21.30;72.83
28004;BME280;15330;51.234;6.754;2023-05-14T08:22:13;101216.91;;;21.90;74.07
28004;BME280;15330;51.234;6.754;2023-05-14T08:24:39;101222.56;;;22.55;70.42
28004;BME280;15330;51.234;6.754;2023-05-14T08:27:06;101221.16;;;22.04;68.22
28004;BME280;15330;51.234;6.754;2023-05-14T08:29:32;101225.28;;;22.85;70.98
28004;BME280;15330;51.234;6.754;2023-05-14T08:31:57;101222.69;;;22.90;66.65
28004;BME280;15330;51.234;6.754;2023-05-14T08:34:22;101217.63;;;23.28;68.90
28004;BME280;15330;51.234;6.754;2023-05-14T08:36:48;101218.19;;;22.24;66.43
28004;BME280;15330;51.234;6.754;2023-05-14T08:39:13;101211.31;;;20.99;68.86
28004;BME280;15330;51.234;6.754;2023-05-14T08:41:39;101213.16;;;21.30;70.43
28004;BME280;15330;51.234;6.754;2023-05-14T08:44:31;101210.47;;;22.21;69.33
28004;BME280;15330;51.234;6.754;2023-05-14T08:46:57;101206.59;;;23.12;65.80
28004;BME280;15330;51.234;6.754;2023-05-14T08:49:39;101204.44;;;23.37;64.29
28004;BME280;15330;51.234;6.754;2023-05-14T08:52:05;101208.50;;;23.58;62.38
28004;BME280;15330;51.234;6.754;2023-05-14T08:54:30;101198.59;;;23.92;62.14
28004;BME280;15330;51.234;6.754;2023-05-14T08:56:56;101196.28;;;24.40;65.12
28004;BME280;15330;51.234;6.754;2023-05-14T08:59:23;101201.63;;;23.55;62.22
28004;BME280;15330;51.234;6.754;2023-05-14T09:01:52;101199.66;;;23.91;61.33
28004;BME280;15330;51.234;6.754;2023-05-14T09:04:23;101188.53;;;23.57;58.99
28004;BME280;15330;51.234;6.754;2023-05-14T09:06:50;101187.91;;;23.78;60.33
28004;BME280;15330;51.234;6.754;2023-05-14T09:09:16;101186.88;;;24.81;59.66
28004;BME280;15330;51.234;6.754;2023-05-14T09:11:45;101184.31;;;24.58;58.68
28004;BME280;15330;51.234;6.754;2023-05-14T09:14:10;101185.94;;;23.39;56.92
28004;BME280;15330;51.234;6.754;2023-05-14T09:16:36;101180.13;;;23.99;55.80
28004;BME280;15330;51.234;6.754;2023-05-14T09:19:03;101188.44;;;24.04;58.06
28004;BME280;15330;51.234;6.754;2023-05-14T09:21:29;101184.13;;;25.10;57.91
28004;BME280;15330;51.234;6.754;2023-05-14T09:23:56;101178.63;;;25.10;55.25
28004;BME280;15330;51.234;6.754;2023-05-14T09:26:25;101176.50;;;25.34;56.72
28004;BME280;15330;51.234;6.754;2023-05-14T09:28:55;101174.03;;;25.92;56.54
28004;BME280;15330;51.234;6.754;2023-05-14T09:31:22;101174.81;;;25.49;55.14
28004;BME280;15330;51.234;6.754;2023-05-14T09:33:51;101167.47;;;25.93;52.61
28004;BME280;15330;51.234;6.754;2023-05-14T09:36:17;101161.44;;;25.70;54.17
28004;BME280;15330;51.234;6.754;2023-05-14T09:38:43;101153.25;;;24.98;53.68
28004;BME280;15330;51.234;6.754;2023-05-14T09:41:09;101153.38;;;25.24;50.34
28004;BME280;15330;51.234;6.754;2023-05-14T09:43:34;101149.00;;;25.62;52.27
28004;BME280;15330;51.234;6.754;2023-05-14T09:45:59;101151.47;;;25.25;50.54
28004;BME280;15330;51.234;6.754;2023-05-14T09:48:25;101155.31;;;25.63;54.28
28004;BME280;15330;51.234;6.754;2023-05-14T09:50:51;101141.75;;;25.56;50.91
28004;BME280;15330;51.234;6.754;2023-05-14T09:53:17;101148.66;;;25.58;52.44
28004;BME280;15330;51.234;6.754;2023-05-14T09:55:43;101150.56;;;24.86;51.60
28004;BME280;15330;51.234;6.754;2023-05-14T09:58:09;101146.13;;;25.35;50.49
28004;BME280;15330;51.234;6.754;2023-05-14T10:00:36;101140.22;;;25.82;50.53
28004;BME280;15330;51.234;6.754;2023-05-14T10:03:04;101144.09;;;25.26;48.72
28004;BME280;15330;51.234;6.754;2023-05-14T10:05:38;101137.09;;;25.73;49.16
28004;BME280;15330;51.234;6.754;2023-05-14T10:08:12;101132.72;;;24.33;49.44
28004;BME280;15330;51.234;6.754;2023-05-14T10:10:39;101133.03;;;22.93;49.92
28004;BME280;15330;51.234;6.754;2023-05-14T10:13:13;101127.44;;;22.88;50.08
28004;BME280;15330;51.234;6.754;2023-05-14T10:15:42;101128.47;;;23.57;51.53
28004;BME280;15330;51.234;6.754;2023-05-14T10:18:12;101134.88;;;24.20;52.26
28004;BME280;15330;51.234;6.754;2023-05-14T10:20:40;101126.44;;;24.66;51.68
28004;BME280;15330;51.234;6.754;2023-05-14T10:23:07;101121.72;;;24.28;48.97
28004;BME280;15330;51.234;6.754;2023-05-14T10:25:34;101116.91;;;22.92;50.51
28004;BME280;15330;51.234;6.754;2023-05-14T10:28:01;101120.16;;;23.92;54.03
28004;BME280;15330;51.234;6.754;2023-05-14T10:30:26;101122.75;;;23.99;51.16
28004;BME280;15330;51.234;6.754;2023-05-14T10:33:18;101116.84;;;22.68;49.91
28004;BME280;15330;51.234;6.754;2023-05-14T10:35:57;101124.91;;;23.57;50.77
28004;BME280;15330;51.234;6.754;2023-05-14T10:38:36;101116.00;;;23.61;51.98
28004;BME280;15330;51.234;6.754;2023-05-14T10:41:02;101110.94;;;24.38;49.77
28004;BME280;15330;51.234;6.754;2023-05-14T10:43:29;101108.38;;;24.48;48.57
28004;BME280;15330;51.234;6.754;2023-05-14T10:45:56;101108.63;;;24.64;47.69
28004;BME280;15330;51.234;6.754;2023-05-14T10:48:23;101096.41;;;25.05;45.14
28004;BME280;15330;51.234;6.754;2023-05-14T10:50:52;101106.78;;;25.41;45.22
28004;BME280;15330;51.234;6.754;2023-05-14T10:53:18;101096.91;;;25.40;45.12
28004;BME280;15330;51.234;6.754;2023-05-14T10:55:44;101098.75;;;24.29;46.62
28004;BME280;15330;51.234;6.754;2023-05-14T10:58:10;101095.59;;;24.09;47.27
28004;BME280;15330;51.234;6.754;2023-05-14T11:00:37;101098.66;;;24.24;47.32
28004;BME280;15330;51.234;6.754;2023-05-14T11:03:04;101093.44;;;23.66;48.62
28004;BME280;15330;51.234;6.754;2023-05-14T11:05:30;101085.91;;;24.01;48.56
28004;BME280;15330;51.234;6.754;2023-05-14T11:07:56;101086.16;;;23.71;48.37
28004;BME280;15330;51.234;6.754;2023-05-14T11:10:23;101083.81;;;23.92;48.01
28004;BME280;15330;51.234;6.754;2023-05-14T11:12:51;101079.63;;;24.29;47.57
28004;BME280;15330;51.234;6.754;2023-05-14T11:15:19;101081.31;;;25.02;45.94
28004;BME280;15330;51.234;6.754;2023-05-14T11:17:46;101066.78;;;25.40;45.41
28004;BME280;15330;51.234;6.754;2023-05-14T11:20:13;101069.75;;;24.78;42.98
28004;BME280;15330;51.234;6.754;2023-05-14T11:22:40;101059.25;;;24.37;42.75
28004;BME280;15330;51.234;6.754;2023-05-14T11:25:08;101065.19;;;24.50;41.67
28004;BME280;15330;51.234;6.754;2023-05-14T11:27:37;101064.97;;;24.07;42.18
28004;BME280;15330;51.234;6.754;2023-05-14T11:30:03;101043.00;;;25.02;40.96
28004;BME280;15330;51.234;6.754;2023-05-14T11:32:33;101049.84;;;25.00;39.84
28004;BME280;15330;51.234;6.754;2023-05-14T11:34:59;101051.94;;;24.59;42.32
28004;BME280;15330;51.234;6.754;2023-05-14T11:37:24;101048.56;;;25.29;41.01
28004;BME280;15330;51.234;6.754;2023-05-14T11:39:52;101043.84;;;25.24;39.50
28004;BME280;15330;51.234;6.754;2023-05-14T11:42:18;101050.09;;;24.65;40.66
28004;BME280;15330;51.234;6.754;2023-05-14T11:44:48;101038.78;;;23.94;38.93
28004;BME280;15330;51.234;6.754;2023-05-14T11:47:16;101041.88;;;23.69;40.58
28004;BME280;15330;51.234;6.754;2023-05-14T11:49:42;101038.63;;;23.44;40.59
28004;BME280;15330;51.234;6.754;2023-05-14T11:52:09;101039.06;;;22.66;41.03
28004;BME280;15330;51.234;6.754;2023-05-14T11:54:43;101046.25;;;22.25;39.67
28004;BME280;15330;51.234;6.754;2023-05-14T11:57:11;101046.63;;;22.29;36.92
28004;BME280;15330;51.234;6.754;2023-05-14T11:59:37;101040.72;;;22.32;36.67
28004;BME280;15330;51.234;6.754;2023-05-14T12:02:04;101035.31;;;22.14;35.87
28004;BME280;15330;51.234;6.754;2023-05-14T12:04:30;101034.34;;;22.61;34.59
28004;BME280;15330;51.234;6.754;2023-05-14T12:06:57;101026.94;;;23.49;34.86
28004;BME280;15330;51.234;6.754;2023-05-14T12:09:22;101019.72;;;23.99;33.13
28004;BME280;15330;51.234;6.754;2023-05-14T12:11:49;101016.66;;;24.24;33.72
28004;BME280;15330;51.234;6.754;2023-05-14T12:14:22;101012.31;;;24.45;31.83
28004;BME280;15330;51.234;6.754;2023-05-14T12:16:49;101012.41;;;23.88;30.93
28004;BME280;15330;51.234;6.754;2023-05-14T12:19:17;101009.56;;;23.26;35.19
28004;BME280;15330;51.234;6.754;2023-05-14T12:21:44;101011.47;;;24.11;34.81
28004;BME280;15330;51.234;6.754;2023-05-14T12:24:11;101012.78;;;23.92;31.19
28004;BME280;15330;51.234;6.754;2023-05-14T12:26:37;101004.34;;;22.50;31.65
28004;BME280;15330;51.234;6.754;2023-05-14T12:29:03;101002.78;;;22.65;31.80
28004;BME280;15330;51.234;6.754;2023-05-14T12:31:31;100981.25;;;23.56;31.31
28004;BME280;15330;51.234;6.754;2023-05-14T12:33:57;100996.19;;;23.82;34.95
28004;BME280;15330;51.234;6.754;2023-05-14T12:36:22;100991.59;;;24.15;31.82
28004;BME280;15330;51.234;6.754;2023-05-14T12:38:49;100993.16;;;24.11;30.54
28004;BME280;15330;51.234;6.754;2023-05-14T12:41:15;100990.94;;;24.08;30.49
28004;BME280;15330;51.234;6.754;2023-05-14T12:43:46;100985.81;;;24.45;31.13
28004;BME280;15330;51.234;6.754;2023-05-14T12:46:12;100995.13;;;24.28;31.13
28004;BME280;15330;51.234;6.754;2023-05-14T12:48:37;100979.75;;;24.60;31.91
28004;BME280;15330;51.234;6.754;2023-05-14T12:53:28;100972.19;;;23.67;33.33